createdAt,value
2023-05-19T11:01:37.212Z,2.60
2023-05-19T11:04:12.349Z,2.38
2023-05-19T11:06:40.350Z,2.20
2023-05-19T11:09:17.514Z,2.08
2023-05-19T11:11:54.520Z,2.40
2023-05-19T11:14:27.418Z,2.58
2023-05-19T11:16:57.628Z,2.45
2023-05-19T11:19:28.880Z,2.40
2023-05-19T11:21:57.273Z,2.28
2023-05-19T11:24:44.409Z,2.40
2023-05-19T11:27:32.634Z,2.30
2023-05-19T11:30:01.736Z,2.20
2023-05-19T11:32:30.205Z,2.78
2023-05-19T11:34:58.045Z,2.42
2023-05-19T11:37:24.587Z,2.97
2023-05-19T11:39:52.301Z,2.50
2023-05-19T11:42:19.298Z,2.25
2023-05-19T11:44:46.668Z,2.42
2023-05-19T11:49:44.036Z,2.58
2023-05-19T11:52:10.982Z,2.58
2023-05-19T11:54:37.735Z,2.72
2023-05-19T11:57:04.350Z,3.08
2023-05-19T11:59:36.215Z,3.00
2023-05-19T12:02:16.609Z,2.80
2023-05-19T12:04:43.303Z,3.28
2023-05-19T12:07:12.379Z,2.58
2023-05-19T12:09:40.290Z,3.22
2023-05-19T12:12:07.711Z,2.95
2023-05-19T12:14:34.525Z,3.00
2023-05-19T12:17:11.103Z,2.80
2023-05-19T12:19:37.695Z,2.60
2023-05-19T12:22:06.954Z,3.07
2023-05-19T12:24:37.576Z,3.08
2023-05-19T12:27:12.741Z,3.67
2023-05-19T12:29:40.008Z,3.50
2023-05-19T12:32:10.291Z,3.75
2023-05-19T12:34:38.181Z,4.28
2023-05-19T12:37:05.717Z,3.88
2023-05-19T12:39:33.697Z,3.13
2023-05-19T12:42:12.988Z,3.05
2023-05-19T12:44:46.620Z,3.13
2023-05-19T12:47:14.840Z,4.00
2023-05-19T12:50:01.422Z,3.47
2023-05-19T12:52:29.349Z,4.07
2023-05-19T12:55:00.559Z,3.95
2023-05-19T12:57:29.632Z,4.20
2023-05-19T13:00:07.942Z,3.90
2023-05-19T13:02:36.481Z,4.30
2023-05-19T13:05:04.777Z,4.68
2023-05-19T13:07:31.207Z,4.10
2023-05-19T13:09:57.633Z,3.97
2023-05-19T13:12:24.640Z,3.70
2023-05-19T13:14:51.955Z,3.75
2023-05-19T13:17:20.570Z,3.80
2023-05-19T13:19:47.089Z,3.80
2023-05-19T13:22:14.069Z,3.10
2023-05-19T13:24:40.835Z,3.40
2023-05-19T13:27:07.257Z,3.03
2023-05-19T13:29:34.096Z,2.90
2023-05-19T13:32:01.640Z,3.70
2023-05-19T13:34:28.179Z,3.85
2023-05-19T13:36:54.736Z,4.20
2023-05-19T13:39:21.178Z,3.80
2023-05-19T13:41:47.596Z,3.33
2023-05-19T13:44:14.028Z,3.03
2023-05-19T13:46:45.565Z,3.33
2023-05-19T13:49:13.337Z,3.40
2023-05-19T13:51:43.813Z,3.55
2023-05-19T13:54:10.489Z,3.58
2023-05-19T13:56:37.130Z,3.47
2023-05-19T13:59:04.061Z,3.73
2023-05-19T14:01:30.757Z,3.90
2023-05-19T14:03:57.449Z,3.60
2023-05-19T14:06:24.475Z,3.60
2023-05-19T14:08:50.902Z,3.20
2023-05-19T14:11:19.767Z,3.38
2023-05-19T14:13:53.027Z,4.03
2023-05-19T14:16:21.890Z,3.50
2023-05-19T14:18:49.038Z,3.53
2023-05-19T14:21:15.734Z,4.25
2023-05-19T14:23:42.247Z,3.65
2023-05-19T14:26:08.682Z,3.22
2023-05-19T14:28:35.312Z,3.92
2023-05-19T14:31:01.789Z,4.30
2023-05-19T14:33:29.724Z,3.90
2023-05-19T14:36:00.012Z,4.00
2023-05-19T14:38:27.687Z,4.45
2023-05-19T14:40:55.515Z,4.35
2023-05-19T14:43:22.085Z,4.10
2023-05-19T14:45:48.858Z,4.03
2023-05-19T14:48:15.831Z,3.75
2023-05-19T14:50:42.319Z,4.43
2023-05-19T14:53:08.797Z,3.95
2023-05-19T14:55:35.348Z,4.70
2023-05-19T14:58:01.981Z,4.50
2023-05-19T15:00:29.872Z,3.88
2023-05-19T15:02:56.577Z,4.37
2023-05-19T15:05:24.219Z,4.47
2023-05-19T15:07:51.029Z,4.07
2023-05-19T15:10:20.323Z,4.00
2023-05-19T15:12:46.935Z,4.60
2023-05-19T15:15:14.108Z,4.40
2023-05-19T15:17:40.628Z,4.60
2023-05-19T15:20:07.525Z,4.60
2023-05-19T15:22:34.519Z,4.68
2023-05-19T15:25:01.090Z,4.40
2023-05-19T15:27:27.603Z,4.30
2023-05-19T15:29:54.068Z,4.50
2023-05-19T15:32:20.670Z,4.55
2023-05-19T15:34:47.273Z,4.30
2023-05-19T15:37:13.681Z,4.37
2023-05-19T15:39:40.404Z,3.90
2023-05-19T15:42:06.782Z,4.03
2023-05-19T15:44:33.263Z,4.40
2023-05-19T15:46:59.916Z,4.50
2023-05-19T15:49:26.354Z,4.93
2023-05-19T15:51:52.783Z,4.72
2023-05-19T15:54:19.190Z,4.43
2023-05-19T15:56:45.721Z,5.35
2023-05-19T15:59:12.137Z,6.07
2023-05-19T16:01:38.760Z,7.22
2023-05-19T16:04:05.513Z,4.77
2023-05-19T16:06:32.195Z,5.88
2023-05-19T16:08:58.598Z,5.15
2023-05-19T16:11:25.014Z,5.38
2023-05-19T16:13:51.463Z,5.53
2023-05-19T16:16:18.805Z,5.20
2023-05-19T16:18:45.538Z,8.18
2023-05-19T16:21:11.986Z,5.78
2023-05-19T16:23:38.526Z,6.05
2023-05-19T16:26:05.046Z,5.33
2023-05-19T16:28:32.436Z,6.10
2023-05-19T16:30:59.940Z,5.18
2023-05-19T16:35:53.313Z,5.20
2023-05-19T16:38:19.822Z,5.20
2023-05-19T16:40:46.278Z,4.53
2023-05-19T16:43:12.717Z,4.38
2023-05-19T16:45:39.729Z,4.30
2023-05-19T16:48:06.347Z,5.03
2023-05-19T16:50:32.986Z,5.10
2023-05-19T16:52:59.482Z,5.22
2023-05-19T16:55:26.986Z,5.22
2023-05-19T17:00:20.050Z,4.68
2023-05-19T17:02:46.565Z,4.77
2023-05-19T17:05:13.178Z,5.30
2023-05-19T17:07:39.615Z,5.07
2023-05-19T17:10:06.435Z,5.07
2023-05-19T17:12:32.882Z,4.97
2023-05-19T17:14:59.303Z,5.00
2023-05-19T17:17:25.953Z,4.70
2023-05-19T17:19:52.613Z,4.10
2023-05-19T17:22:19.248Z,8.00
2023-05-19T17:24:45.824Z,5.23
2023-05-19T17:27:12.243Z,5.33
2023-05-19T17:29:38.781Z,5.00
2023-05-19T17:32:05.303Z,5.43
2023-05-19T17:34:32.265Z,5.38
2023-05-19T17:36:59.611Z,4.57
2023-05-19T17:39:26.102Z,6.10
2023-05-19T17:41:52.592Z,6.03
2023-05-19T17:44:19.128Z,6.40
2023-05-19T17:46:45.749Z,7.25
2023-05-19T17:49:13.137Z,6.60
2023-05-19T17:51:39.758Z,6.20
2023-05-19T17:54:06.675Z,6.47
2023-05-19T17:56:34.293Z,6.57
2023-05-19T17:59:01.356Z,6.50
2023-05-19T18:01:28.062Z,6.20
2023-05-19T18:03:54.922Z,6.47
2023-05-19T18:06:22.410Z,6.93
2023-05-19T18:08:51.378Z,6.60
2023-05-19T18:11:18.663Z,6.68
2023-05-19T18:13:45.130Z,7.30
2023-05-19T18:16:12.268Z,6.88
2023-05-19T18:18:41.148Z,6.97
2023-05-19T18:21:07.729Z,7.32
2023-05-19T18:23:34.182Z,6.60
2023-05-19T18:26:00.767Z,7.78
2023-05-19T18:28:27.265Z,7.90
2023-05-19T18:31:01.251Z,7.05
2023-05-19T18:33:30.113Z,7.75
2023-05-19T18:35:58.213Z,8.15
2023-05-19T18:38:24.839Z,8.52
2023-05-19T18:40:51.859Z,9.00
2023-05-19T18:43:18.771Z,9.00
2023-05-19T18:45:48.491Z,8.32
2023-05-19T18:48:15.561Z,9.27
2023-05-19T18:50:44.519Z,9.50
2023-05-19T18:53:11.858Z,9.52
2023-05-19T18:55:38.689Z,9.90
2023-05-19T18:58:06.150Z,9.98
2023-05-19T19:03:00.093Z,9.80
2023-05-19T19:05:26.631Z,9.98
2023-05-19T19:07:53.373Z,10.20
2023-05-19T19:10:19.996Z,10.75
2023-05-19T19:12:46.653Z,10.20
2023-05-19T19:15:14.085Z,10.93
2023-05-19T19:17:41.224Z,10.63
2023-05-19T19:20:08.711Z,10.48
2023-05-19T19:25:01.687Z,11.37
2023-05-19T19:27:31.096Z,10.95
2023-05-19T19:30:01.418Z,11.43
2023-05-19T19:32:27.961Z,11.40
2023-05-19T19:34:54.521Z,11.38
2023-05-19T19:37:20.995Z,12.03
2023-05-19T19:39:47.547Z,11.95
2023-05-19T19:42:14.113Z,11.15
2023-05-19T19:44:40.771Z,11.83
2023-05-19T19:47:07.678Z,12.93
2023-05-19T19:49:34.168Z,13.20
2023-05-19T19:52:00.846Z,13.27
2023-05-19T19:54:27.497Z,14.77
2023-05-19T19:56:53.982Z,13.00
2023-05-19T19:59:20.627Z,13.30
